Pedro Bay, AK

7:12 PM AKDT on October 22, 2014 (GMT -0800)
Iliamna | Change Station
CLOSE
Current Station
Airport
Location: Iliamna,
Elevation: 161 ft
Nearby Weather Stations

Elev 161 ft 59.75 °N, 154.91 °W | Updated 19 minutes ago

Mostly Cloudy
Mostly Cloudy
33 °F
Feels Like 23 °F
N
15
Wind Variable Wind from NNW
Gusts 23 mph

Today
High -- | Low -- °F
--% Chance of Precip.
Yesterday
High -- | Low -- °F
Precip. -- in
9:16 AM 6:50 PM
Waning Crescent, 1% visible
Pressure 29.60 in
Visibility 10.0 miles
Clouds Few 1800 ft
Scattered Clouds 2800 ft
Mostly Cloudy 3000 ft
Windchill 23 °F
Dew Point 25 °F
Humidity 72%
Rainfall 0.00 in
Snow Depth Not available.
UV 0 out of 12
Pollen Not available.
Air Quality Not available.
Flu Activity Sporadic
METAR PAIL 230253Z 33013G20KT 10SM FEW018 SCT028 BKN030 01/M04 A2959 RMK AO2 SLP023 T00061039 51022

More Conditions Fewer Conditions

Pressure 29.60 in
Visibility 10.0 miles
Clouds Few 1800 ft
Scattered Clouds 2800 ft
Mostly Cloudy 3000 ft
Windchill 23 °F
Dew Point 25 °F
Humidity 72%
Rainfall 0.00 in
Snow Depth Not available.
UV 0 out of 12
Pollen Not available.
Air Quality Not available.
Flu Activity Sporadic
METAR PAIL 230253Z 33013G20KT 10SM FEW018 SCT028 BKN030 01/M04 A2959 RMK AO2 SLP023 T00061039 51022

More Conditions Fewer Conditions

10-Day Weather Forecast

Almanac

Astronomy

Oct. 22, 2014 Rise Set
Actual Time 9:16 AM AKDT 6:50 PM AKDT
Civil Twilight 8:33 AM AKDT 7:33 PM AKDT
Nautical Twilight 7:45 AM AKDT 8:21 PM AKDT
Astronomical Twilight 6:57 AM AKDT 9:09 PM AKDT
Moon 7:52 AM AKDT (10/22) 6:33 PM AKDT (10/22)
Length of Visible Light 11h 00m
Length of Day
9h 34m
Tomorrow will be 5m 16s shorter.
Waning Crescent, 1% of the Moon is Illuminated
Today
Waning Crescent
Oct 23
New
Oct 30
First Quarter
Nov 6
Full
Nov 14
Last Quarter

Today's Extremes

State Highs State Lows

Community

WunderPhotos

Upload Photos

1,764,128 photos uploaded!

Nearby

Snow Depth

Station Depth Elevation
Mcneil Canyon 1 in 1320 ft
Port Graham 0 in 300 ft
Cooper Lake 1 in 1200 ft
Summit Creek 3 in 1400 ft
Grouse Creek Divide 0 in 700 ft

Earthquake Activity

City Distance Mag. Time & Date
No recent earthquake activity has been reported nearby.
Minimum magnitude displayed is 2.5.

Coastal Water Temperatures

Place Temperature
No Stations Reporting

Nearby Weather Stations